McLeod, MT (59052)

1:26 PM MDT on April 29, 2017 (GMT -0600)
S. Boulder-McKenzie Flats | | Change Station

Elev 4840 ft 45.75 °N, 109.96 °W | Updated 1 second ago

Partly Cloudy
Partly Cloudy
53.3 °F
Feels Like 53.3 °F
N
8.0
Wind Variable Wind from South
Gusts 8.0 mph

Today
High -- | Low -- °F
--% Chance of Precip.
Yesterday
High -- | Low -- °F
Precip. -- in
Pressure 30.19 in
Visibility 10.0 miles
Clouds Scattered Clouds 4900 ft
Dew Point 32 °F
Humidity 45%
Rainfall 0.00 in
Snow Depth Not available.
6:10 AM 8:25 PM
Waxing Crescent, 16% visible
METAR KLVM 291853Z AUTO 30008KT 10SM SCT049 11/M01 A3018 RMK AO2 SLP224 T01061006
Pressure 30.19 in
Visibility 10.0 miles
Clouds Scattered Clouds 4900 ft
Dew Point 32 °F
Humidity 45%
Rainfall 0.00 in
Snow Depth Not available.
6:10 AM 8:25 PM
Waxing Crescent, 16% visible
METAR KLVM 291853Z AUTO 30008KT 10SM SCT049 11/M01 A3018 RMK AO2 SLP224 T01061006

Get Severe Weather Alerts

Thanks for signing up!

Be on the lookout for a verification email in your inbox.

You'll start receiving the daily forecast at 8 AM.

×

10-Day Weather Forecast

Almanac

Astronomy

Apr. 29, 2017 Rise Set
Actual Time
Civil Twilight
Nautical Twilight
Astronomical Twilight
Moon
Length of Visible Light
Length of Day
Tomorrow will be .
, % of the Moon is Illuminated

Today's Extremes

State Highs State Lows

Community

WunderPhotos

WunderBlog® & News

Nearby

Air Quality

  Air Quality AQ Index Pollutant
Not available.

Snow Depth

Station Depth Elevation

Earthquake Activity

City Distance Mag. Time & Date
Minimum magnitude displayed is 2.5.

Coastal Water Temperatures

Place Temperature

Stations

Nearby Weather Stations

Station Location Temp. Windchill Dew Point Humidity Wind Precip. Elev Updated Type
                   

Watches & Warnings

There are currently no watches in effect.